Albin, Mississippi
Current Conditions -  °F | °C
As of 10:35 AM on Wednesday 26 Nov 2014 (Local Time) from KCKM Reporting Station
Clear Clear  
Wind Chill: 42°   Ceiling: Unl
Heat Index: 48°   Visibility: 10mi
Dew Point: 36°   Wind: 15mph
Humidity: 62%   Direction: 160°SSE
Pressure: 30.1"   Gusts: NA
Location:  33.9477°N, 90.3476°W
Report Text: KCKM 261635Z AUTO 16013KT 10SM CLR 09/02 A3010 RMK AO1
Loading
Personal Weather Stations






























Interactive Weather Map New forecast layout! Learn more

10-Day Weather Forecast

Advertisements
Track Severe Weather on mobile